sensor_id;sensor_type;location;lat;lon;timestamp;P1;durP1;ratioP1;P2;durP2;ratioP2
18893;SDS011;9579;49.488;8.226;2024-01-27T00:02:28;7.17;;;3.30;;
18893;SDS011;9579;49.488;8.226;2024-01-27T00:05:15;6.50;;;3.10;;
18893;SDS011;9579;49.488;8.226;2024-01-27T00:08:02;6.87;;;2.83;;
18893;SDS011;9579;49.488;8.226;2024-01-27T00:10:50;5.83;;;3.13;;
18893;SDS011;9579;49.488;8.226;2024-01-27T00:13:38;7.33;;;3.03;;
18893;SDS011;9579;49.488;8.226;2024-01-27T00:16:25;7.77;;;2.90;;
18893;SDS011;9579;49.488;8.226;2024-01-27T00:19:12;5.40;;;2.90;;
18893;SDS011;9579;49.488;8.226;2024-01-27T00:21:59;6.73;;;3.27;;
18893;SDS011;9579;49.488;8.226;2024-01-27T00:24:47;5.27;;;2.93;;
18893;SDS011;9579;49.488;8.226;2024-01-27T00:27:35;5.93;;;3.10;;
18893;SDS011;9579;49.488;8.226;2024-01-27T00:30:24;4.43;;;2.70;;
18893;SDS011;9579;49.488;8.226;2024-01-27T00:33:11;4.63;;;2.67;;
18893;SDS011;9579;49.488;8.226;2024-01-27T00:35:58;4.27;;;2.60;;
18893;SDS011;9579;49.488;8.226;2024-01-27T00:38:45;5.07;;;2.67;;
18893;SDS011;9579;49.488;8.226;2024-01-27T00:41:33;6.70;;;3.03;;
18893;SDS011;9579;49.488;8.226;2024-01-27T00:44:20;7.03;;;3.50;;
18893;SDS011;9579;49.488;8.226;2024-01-27T00:47:09;6.07;;;3.13;;
18893;SDS011;9579;49.488;8.226;2024-01-27T00:49:56;4.97;;;2.97;;
18893;SDS011;9579;49.488;8.226;2024-01-27T00:52:43;4.97;;;2.53;;
18893;SDS011;9579;49.488;8.226;2024-01-27T00:55:30;3.87;;;2.47;;
18893;SDS011;9579;49.488;8.226;2024-01-27T00:58:17;5.67;;;2.73;;
18893;SDS011;9579;49.488;8.226;2024-01-27T01:01:04;3.93;;;2.37;;
18893;SDS011;9579;49.488;8.226;2024-01-27T01:03:53;4.43;;;2.30;;
18893;SDS011;9579;49.488;8.226;2024-01-27T01:06:40;4.30;;;2.40;;
18893;SDS011;9579;49.488;8.226;2024-01-27T01:09:27;4.80;;;2.37;;
18893;SDS011;9579;49.488;8.226;2024-01-27T01:12:14;4.57;;;2.60;;
18893;SDS011;9579;49.488;8.226;2024-01-27T01:15:01;4.10;;;2.40;;
18893;SDS011;9579;49.488;8.226;2024-01-27T01:17:49;5.10;;;2.33;;
18893;SDS011;9579;49.488;8.226;2024-01-27T01:20:37;6.07;;;2.83;;
18893;SDS011;9579;49.488;8.226;2024-01-27T01:23:24;3.77;;;2.20;;
18893;SDS011;9579;49.488;8.226;2024-01-27T01:26:11;6.03;;;2.70;;
18893;SDS011;9579;49.488;8.226;2024-01-27T01:28:58;6.10;;;2.83;;
18893;SDS011;9579;49.488;8.226;2024-01-27T01:31:45;4.77;;;2.60;;
18893;SDS011;9579;49.488;8.226;2024-01-27T01:34:32;4.27;;;2.30;;
18893;SDS011;9579;49.488;8.226;2024-01-27T01:37:21;5.67;;;2.87;;
18893;SDS011;9579;49.488;8.226;2024-01-27T01:40:08;5.97;;;3.20;;
18893;SDS011;9579;49.488;8.226;2024-01-27T01:42:55;5.77;;;2.57;;
18893;SDS011;9579;49.488;8.226;2024-01-27T01:45:44;5.43;;;2.60;;
18893;SDS011;9579;49.488;8.226;2024-01-27T01:48:31;7.27;;;2.93;;
18893;SDS011;9579;49.488;8.226;2024-01-27T01:51:18;7.97;;;3.10;;
18893;SDS011;9579;49.488;8.226;2024-01-27T01:54:07;3.93;;;2.47;;
18893;SDS011;9579;49.488;8.226;2024-01-27T01:56:54;7.67;;;3.00;;
18893;SDS011;9579;49.488;8.226;2024-01-27T01:59:42;5.80;;;2.60;;
18893;SDS011;9579;49.488;8.226;2024-01-27T02:02:29;5.43;;;2.70;;
18893;SDS011;9579;49.488;8.226;2024-01-27T02:05:16;5.53;;;2.70;;
18893;SDS011;9579;49.488;8.226;2024-01-27T02:08:04;5.43;;;2.73;;
18893;SDS011;9579;49.488;8.226;2024-01-27T02:10:52;4.27;;;2.43;;
18893;SDS011;9579;49.488;8.226;2024-01-27T02:13:40;6.70;;;2.93;;
18893;SDS011;9579;49.488;8.226;2024-01-27T02:16:27;6.97;;;3.07;;
18893;SDS011;9579;49.488;8.226;2024-01-27T02:19:14;5.63;;;2.73;;
18893;SDS011;9579;49.488;8.226;2024-01-27T02:22:01;5.40;;;2.87;;
18893;SDS011;9579;49.488;8.226;2024-01-27T02:24:50;5.53;;;2.93;;
18893;SDS011;9579;49.488;8.226;2024-01-27T02:27:37;7.47;;;2.80;;
18893;SDS011;9579;49.488;8.226;2024-01-27T02:30:24;6.10;;;2.93;;
18893;SDS011;9579;49.488;8.226;2024-01-27T02:33:11;4.87;;;2.87;;
18893;SDS011;9579;49.488;8.226;2024-01-27T02:35:58;4.23;;;2.70;;
18893;SDS011;9579;49.488;8.226;2024-01-27T02:38:45;6.50;;;2.83;;
18893;SDS011;9579;49.488;8.226;2024-01-27T02:41:34;5.77;;;2.90;;
18893;SDS011;9579;49.488;8.226;2024-01-27T02:44:24;7.00;;;2.80;;
18893;SDS011;9579;49.488;8.226;2024-01-27T02:47:11;6.20;;;3.17;;
18893;SDS011;9579;49.488;8.226;2024-01-27T02:49:58;5.80;;;2.70;;
18893;SDS011;9579;49.488;8.226;2024-01-27T02:52:45;5.87;;;2.73;;
18893;SDS011;9579;49.488;8.226;2024-01-27T02:55:32;5.40;;;2.90;;
18893;SDS011;9579;49.488;8.226;2024-01-27T02:58:20;6.23;;;3.00;;
18893;SDS011;9579;49.488;8.226;2024-01-27T03:01:07;6.90;;;3.13;;
18893;SDS011;9579;49.488;8.226;2024-01-27T03:03:54;5.43;;;3.00;;
18893;SDS011;9579;49.488;8.226;2024-01-27T03:06:41;4.63;;;2.90;;
18893;SDS011;9579;49.488;8.226;2024-01-27T03:09:28;5.33;;;2.70;;
18893;SDS011;9579;49.488;8.226;2024-01-27T03:12:16;7.07;;;2.90;;
18893;SDS011;9579;49.488;8.226;2024-01-27T03:15:05;7.17;;;2.90;;
18893;SDS011;9579;49.488;8.226;2024-01-27T03:17:53;6.00;;;3.07;;
18893;SDS011;9579;49.488;8.226;2024-01-27T03:20:40;6.40;;;2.80;;
18893;SDS011;9579;49.488;8.226;2024-01-27T03:23:27;7.27;;;3.10;;
18893;SDS011;9579;49.488;8.226;2024-01-27T03:26:14;6.07;;;3.10;;
18893;SDS011;9579;49.488;8.226;2024-01-27T03:29:01;4.80;;;2.83;;
18893;SDS011;9579;49.488;8.226;2024-01-27T03:31:50;9.73;;;3.40;;
18893;SDS011;9579;49.488;8.226;2024-01-27T03:34:37;6.30;;;3.57;;
18893;SDS011;9579;49.488;8.226;2024-01-27T03:37:29;6.43;;;3.50;;
18893;SDS011;9579;49.488;8.226;2024-01-27T03:40:16;5.07;;;3.17;;
18893;SDS011;9579;49.488;8.226;2024-01-27T03:43:04;5.47;;;3.20;;
18893;SDS011;9579;49.488;8.226;2024-01-27T03:45:51;6.63;;;2.83;;
18893;SDS011;9579;49.488;8.226;2024-01-27T03:48:39;7.53;;;3.20;;
18893;SDS011;9579;49.488;8.226;2024-01-27T03:51:26;7.40;;;3.37;;
18893;SDS011;9579;49.488;8.226;2024-01-27T03:54:14;4.77;;;3.27;;
18893;SDS011;9579;49.488;8.226;2024-01-27T03:57:01;6.37;;;3.10;;
18893;SDS011;9579;49.488;8.226;2024-01-27T03:59:48;6.73;;;3.70;;
18893;SDS011;9579;49.488;8.226;2024-01-27T04:02:35;7.23;;;3.23;;
18893;SDS011;9579;49.488;8.226;2024-01-27T04:05:23;8.67;;;3.53;;
18893;SDS011;9579;49.488;8.226;2024-01-27T04:08:10;4.80;;;2.90;;
18893;SDS011;9579;49.488;8.226;2024-01-27T04:10:57;8.13;;;3.40;;
18893;SDS011;9579;49.488;8.226;2024-01-27T04:13:44;6.20;;;3.63;;
18893;SDS011;9579;49.488;8.226;2024-01-27T04:16:31;4.10;;;2.73;;
18893;SDS011;9579;49.488;8.226;2024-01-27T04:19:19;6.40;;;3.20;;
18893;SDS011;9579;49.488;8.226;2024-01-27T04:22:07;4.93;;;2.97;;
18893;SDS011;9579;49.488;8.226;2024-01-27T04:24:54;7.87;;;3.63;;
18893;SDS011;9579;49.488;8.226;2024-01-27T04:27:41;4.50;;;2.80;;
18893;SDS011;9579;49.488;8.226;2024-01-27T04:30:28;6.10;;;3.40;;
18893;SDS011;9579;49.488;8.226;2024-01-27T04:33:15;6.17;;;3.30;;
18893;SDS011;9579;49.488;8.226;2024-01-27T04:36:02;5.33;;;3.10;;
18893;SDS011;9579;49.488;8.226;2024-01-27T04:38:53;5.10;;;3.27;;
18893;SDS011;9579;49.488;8.226;2024-01-27T04:41:41;6.20;;;3.30;;
18893;SDS011;9579;49.488;8.226;2024-01-27T04:44:29;5.37;;;3.23;;
18893;SDS011;9579;49.488;8.226;2024-01-27T04:47:16;3.53;;;2.70;;
18893;SDS011;9579;49.488;8.226;2024-01-27T04:50:03;9.20;;;3.40;;
18893;SDS011;9579;49.488;8.226;2024-01-27T04:52:51;6.10;;;3.23;;
18893;SDS011;9579;49.488;8.226;2024-01-27T04:55:39;8.23;;;3.57;;
18893;SDS011;9579;49.488;8.226;2024-01-27T04:58:26;6.30;;;3.10;;
18893;SDS011;9579;49.488;8.226;2024-01-27T05:01:13;6.90;;;3.57;;
18893;SDS011;9579;49.488;8.226;2024-01-27T05:04:00;5.37;;;3.20;;
18893;SDS011;9579;49.488;8.226;2024-01-27T05:06:47;6.37;;;3.30;;
18893;SDS011;9579;49.488;8.226;2024-01-27T05:09:34;4.50;;;3.20;;
18893;SDS011;9579;49.488;8.226;2024-01-27T05:12:23;6.17;;;3.00;;
18893;SDS011;9579;49.488;8.226;2024-01-27T05:15:10;7.27;;;3.07;;
18893;SDS011;9579;49.488;8.226;2024-01-27T05:17:57;5.53;;;3.30;;
18893;SDS011;9579;49.488;8.226;2024-01-27T05:20:44;5.10;;;3.00;;
18893;SDS011;9579;49.488;8.226;2024-01-27T05:23:31;3.93;;;2.83;;
18893;SDS011;9579;49.488;8.226;2024-01-27T05:26:19;4.57;;;2.90;;
18893;SDS011;9579;49.488;8.226;2024-01-27T05:29:10;6.53;;;3.23;;
18893;SDS011;9579;49.488;8.226;2024-01-27T05:31:57;4.50;;;2.67;;
18893;SDS011;9579;49.488;8.226;2024-01-27T05:34:45;6.43;;;3.40;;
18893;SDS011;9579;49.488;8.226;2024-01-27T05:37:32;7.53;;;3.80;;
18893;SDS011;9579;49.488;8.226;2024-01-27T05:40:22;5.80;;;3.30;;
18893;SDS011;9579;49.488;8.226;2024-01-27T05:43:15;8.70;;;3.80;;
18893;SDS011;9579;49.488;8.226;2024-01-27T05:46:04;6.93;;;2.90;;
18893;SDS011;9579;49.488;8.226;2024-01-27T05:48:52;5.70;;;3.10;;
18893;SDS011;9579;49.488;8.226;2024-01-27T05:51:43;6.37;;;3.30;;
18893;SDS011;9579;49.488;8.226;2024-01-27T05:54:30;7.33;;;3.17;;
18893;SDS011;9579;49.488;8.226;2024-01-27T05:57:17;5.60;;;3.17;;
18893;SDS011;9579;49.488;8.226;2024-01-27T06:00:04;7.10;;;3.50;;
18893;SDS011;9579;49.488;8.226;2024-01-27T06:02:56;7.30;;;3.10;;
18893;SDS011;9579;49.488;8.226;2024-01-27T06:05:43;6.97;;;3.17;;
18893;SDS011;9579;49.488;8.226;2024-01-27T06:08:30;6.27;;;3.20;;
18893;SDS011;9579;49.488;8.226;2024-01-27T06:11:22;6.00;;;3.20;;
18893;SDS011;9579;49.488;8.226;2024-01-27T06:14:18;6.73;;;3.30;;
18893;SDS011;9579;49.488;8.226;2024-01-27T06:17:18;7.70;;;3.77;;
18893;SDS011;9579;49.488;8.226;2024-01-27T06:23:27;6.63;;;3.30;;
18893;SDS011;9579;49.488;8.226;2024-01-27T06:26:22;7.83;;;3.50;;
18893;SDS011;9579;49.488;8.226;2024-01-27T06:32:42;7.17;;;3.60;;
18893;SDS011;9579;49.488;8.226;2024-01-27T06:38:51;5.23;;;3.07;;
18893;SDS011;9579;49.488;8.226;2024-01-27T06:41:45;4.37;;;3.30;;
18893;SDS011;9579;49.488;8.226;2024-01-27T06:44:36;4.33;;;3.00;;
18893;SDS011;9579;49.488;8.226;2024-01-27T06:47:26;5.83;;;3.50;;
18893;SDS011;9579;49.488;8.226;2024-01-27T06:50:13;7.43;;;3.70;;
18893;SDS011;9579;49.488;8.226;2024-01-27T06:53:02;7.57;;;3.93;;
18893;SDS011;9579;49.488;8.226;2024-01-27T06:55:49;6.70;;;3.60;;
18893;SDS011;9579;49.488;8.226;2024-01-27T06:59:12;6.13;;;3.40;;
18893;SDS011;9579;49.488;8.226;2024-01-27T07:02:16;9.03;;;4.17;;
18893;SDS011;9579;49.488;8.226;2024-01-27T07:05:05;8.73;;;4.00;;
18893;SDS011;9579;49.488;8.226;2024-01-27T07:08:31;6.33;;;3.67;;
18893;SDS011;9579;49.488;8.226;2024-01-27T07:11:19;5.17;;;3.60;;
18893;SDS011;9579;49.488;8.226;2024-01-27T07:14:08;7.20;;;3.93;;
18893;SDS011;9579;49.488;8.226;2024-01-27T07:17:00;8.00;;;4.30;;
18893;SDS011;9579;49.488;8.226;2024-01-27T07:19:56;5.27;;;3.70;;
18893;SDS011;9579;49.488;8.226;2024-01-27T07:22:46;5.27;;;3.63;;
18893;SDS011;9579;49.488;8.226;2024-01-27T07:25:38;4.80;;;3.53;;
18893;SDS011;9579;49.488;8.226;2024-01-27T07:28:26;7.93;;;4.50;;
18893;SDS011;9579;49.488;8.226;2024-01-27T07:34:33;8.90;;;5.60;;
18893;SDS011;9579;49.488;8.226;2024-01-27T07:41:10;6.37;;;3.87;;
18893;SDS011;9579;49.488;8.226;2024-01-27T07:47:17;9.97;;;6.40;;
18893;SDS011;9579;49.488;8.226;2024-01-27T07:50:14;7.27;;;5.60;;
18893;SDS011;9579;49.488;8.226;2024-01-27T07:59:30;59.70;;;49.17;;
18893;SDS011;9579;49.488;8.226;2024-01-27T08:02:23;46.60;;;36.20;;
18893;SDS011;9579;49.488;8.226;2024-01-27T08:05:17;64.87;;;49.93;;
18893;SDS011;9579;49.488;8.226;2024-01-27T08:08:05;32.33;;;26.43;;
18893;SDS011;9579;49.488;8.226;2024-01-27T08:10:52;11.50;;;9.97;;
18893;SDS011;9579;49.488;8.226;2024-01-27T08:13:40;9.63;;;7.07;;
18893;SDS011;9579;49.488;8.226;2024-01-27T08:16:27;8.43;;;5.27;;
18893;SDS011;9579;49.488;8.226;2024-01-27T08:19:15;9.30;;;6.20;;
18893;SDS011;9579;49.488;8.226;2024-01-27T08:22:05;5.93;;;4.70;;
18893;SDS011;9579;49.488;8.226;2024-01-27T08:24:54;6.03;;;4.20;;
18893;SDS011;9579;49.488;8.226;2024-01-27T08:27:41;6.87;;;5.03;;
18893;SDS011;9579;49.488;8.226;2024-01-27T08:30:30;5.80;;;4.77;;
18893;SDS011;9579;49.488;8.226;2024-01-27T08:33:17;7.17;;;4.20;;
18893;SDS011;9579;49.488;8.226;2024-01-27T08:36:04;6.03;;;4.03;;
18893;SDS011;9579;49.488;8.226;2024-01-27T08:38:52;6.40;;;4.23;;
18893;SDS011;9579;49.488;8.226;2024-01-27T08:41:40;7.93;;;4.30;;
18893;SDS011;9579;49.488;8.226;2024-01-27T08:44:27;5.23;;;4.50;;
18893;SDS011;9579;49.488;8.226;2024-01-27T08:47:25;5.47;;;4.47;;
18893;SDS011;9579;49.488;8.226;2024-01-27T08:50:21;7.13;;;5.47;;
18893;SDS011;9579;49.488;8.226;2024-01-27T08:53:09;8.53;;;5.37;;
18893;SDS011;9579;49.488;8.226;2024-01-27T08:55:56;11.37;;;6.57;;
18893;SDS011;9579;49.488;8.226;2024-01-27T08:58:44;7.53;;;5.77;;
18893;SDS011;9579;49.488;8.226;2024-01-27T09:01:35;7.47;;;5.93;;
18893;SDS011;9579;49.488;8.226;2024-01-27T09:12:44;7.63;;;5.80;;
18893;SDS011;9579;49.488;8.226;2024-01-27T09:33:49;7.77;;;4.50;;
18893;SDS011;9579;49.488;8.226;2024-01-27T09:39:33;5.90;;;4.17;;
18893;SDS011;9579;49.488;8.226;2024-01-27T09:45:01;7.37;;;4.33;;
18893;SDS011;9579;49.488;8.226;2024-01-27T10:08:19;5.30;;;4.07;;
18893;SDS011;9579;49.488;8.226;2024-01-27T10:11:43;5.90;;;4.10;;
18893;SDS011;9579;49.488;8.226;2024-01-27T10:14:41;5.70;;;4.20;;
18893;SDS011;9579;49.488;8.226;2024-01-27T10:17:30;6.77;;;5.20;;
18893;SDS011;9579;49.488;8.226;2024-01-27T10:20:21;9.60;;;5.87;;
18893;SDS011;9579;49.488;8.226;2024-01-27T10:23:12;6.73;;;4.83;;
18893;SDS011;9579;49.488;8.226;2024-01-27T10:26:00;8.07;;;4.80;;
18893;SDS011;9579;49.488;8.226;2024-01-27T10:28:52;7.33;;;4.83;;
18893;SDS011;9579;49.488;8.226;2024-01-27T10:31:40;7.33;;;4.70;;
18893;SDS011;9579;49.488;8.226;2024-01-27T10:34:27;6.60;;;4.60;;
18893;SDS011;9579;49.488;8.226;2024-01-27T10:37:14;8.47;;;4.73;;
18893;SDS011;9579;49.488;8.226;2024-01-27T10:40:02;7.93;;;5.10;;
18893;SDS011;9579;49.488;8.226;2024-01-27T10:42:53;7.53;;;4.67;;
18893;SDS011;9579;49.488;8.226;2024-01-27T10:45:47;9.77;;;5.33;;
18893;SDS011;9579;49.488;8.226;2024-01-27T10:48:35;5.80;;;4.40;;
18893;SDS011;9579;49.488;8.226;2024-01-27T10:51:23;7.37;;;4.60;;
18893;SDS011;9579;49.488;8.226;2024-01-27T10:54:18;8.43;;;4.53;;
18893;SDS011;9579;49.488;8.226;2024-01-27T10:57:09;7.33;;;4.70;;
18893;SDS011;9579;49.488;8.226;2024-01-27T10:59:58;6.80;;;4.90;;
18893;SDS011;9579;49.488;8.226;2024-01-27T11:02:49;9.90;;;4.37;;
18893;SDS011;9579;49.488;8.226;2024-01-27T11:05:38;7.83;;;4.60;;
18893;SDS011;9579;49.488;8.226;2024-01-27T11:08:26;7.70;;;4.67;;
18893;SDS011;9579;49.488;8.226;2024-01-27T11:11:15;9.30;;;4.67;;
18893;SDS011;9579;49.488;8.226;2024-01-27T11:14:02;8.77;;;5.03;;
18893;SDS011;9579;49.488;8.226;2024-01-27T11:16:55;7.27;;;4.70;;
18893;SDS011;9579;49.488;8.226;2024-01-27T11:19:42;6.00;;;4.20;;
18893;SDS011;9579;49.488;8.226;2024-01-27T11:22:31;6.93;;;4.07;;
18893;SDS011;9579;49.488;8.226;2024-01-27T11:25:19;6.33;;;3.77;;
18893;SDS011;9579;49.488;8.226;2024-01-27T11:28:12;7.73;;;4.37;;
18893;SDS011;9579;49.488;8.226;2024-01-27T11:31:03;4.53;;;3.50;;
18893;SDS011;9579;49.488;8.226;2024-01-27T11:33:51;7.07;;;4.03;;
18893;SDS011;9579;49.488;8.226;2024-01-27T11:36:40;6.83;;;3.90;;
18893;SDS011;9579;49.488;8.226;2024-01-27T11:39:27;6.10;;;3.30;;
18893;SDS011;9579;49.488;8.226;2024-01-27T11:42:16;7.77;;;3.90;;
18893;SDS011;9579;49.488;8.226;2024-01-27T11:45:03;7.37;;;3.50;;
18893;SDS011;9579;49.488;8.226;2024-01-27T11:47:51;6.60;;;4.10;;
18893;SDS011;9579;49.488;8.226;2024-01-27T11:50:40;5.90;;;3.80;;
18893;SDS011;9579;49.488;8.226;2024-01-27T11:53:27;5.90;;;3.70;;
18893;SDS011;9579;49.488;8.226;2024-01-27T11:56:14;5.27;;;3.47;;
18893;SDS011;9579;49.488;8.226;2024-01-27T11:59:02;8.10;;;4.00;;
18893;SDS011;9579;49.488;8.226;2024-01-27T12:01:49;5.72;;;3.67;;
18893;SDS011;9579;49.488;8.226;2024-01-27T12:04:37;6.13;;;4.30;;
18893;SDS011;9579;49.488;8.226;2024-01-27T12:07:27;9.43;;;4.20;;
18893;SDS011;9579;49.488;8.226;2024-01-27T12:10:14;8.00;;;3.28;;
18893;SDS011;9579;49.488;8.226;2024-01-27T12:13:02;4.68;;;2.88;;
18893;SDS011;9579;49.488;8.226;2024-01-27T12:15:49;7.97;;;3.13;;
18893;SDS011;9579;49.488;8.226;2024-01-27T12:18:37;5.70;;;2.80;;
18893;SDS011;9579;49.488;8.226;2024-01-27T12:21:26;6.68;;;3.10;;
18893;SDS011;9579;49.488;8.226;2024-01-27T12:24:26;8.02;;;3.58;;
18893;SDS011;9579;49.488;8.226;2024-01-27T12:27:13;6.90;;;2.78;;
18893;SDS011;9579;49.488;8.226;2024-01-27T12:30:38;5.75;;;2.75;;
18893;SDS011;9579;49.488;8.226;2024-01-27T12:36:52;5.15;;;3.00;;
18893;SDS011;9579;49.488;8.226;2024-01-27T12:40:03;7.18;;;3.35;;
18893;SDS011;9579;49.488;8.226;2024-01-27T12:43:07;6.18;;;3.55;;
18893;SDS011;9579;49.488;8.226;2024-01-27T12:45:55;7.40;;;3.50;;
18893;SDS011;9579;49.488;8.226;2024-01-27T12:48:42;5.65;;;3.50;;
18893;SDS011;9579;49.488;8.226;2024-01-27T12:51:30;7.50;;;3.70;;
18893;SDS011;9579;49.488;8.226;2024-01-27T12:54:20;7.85;;;3.60;;
18893;SDS011;9579;49.488;8.226;2024-01-27T12:57:09;6.50;;;3.40;;
18893;SDS011;9579;49.488;8.226;2024-01-27T12:59:57;7.22;;;3.72;;
18893;SDS011;9579;49.488;8.226;2024-01-27T13:02:46;5.32;;;3.50;;
18893;SDS011;9579;49.488;8.226;2024-01-27T13:05:34;7.50;;;3.72;;
18893;SDS011;9579;49.488;8.226;2024-01-27T13:08:21;8.77;;;3.67;;
18893;SDS011;9579;49.488;8.226;2024-01-27T13:11:08;7.15;;;3.50;;
18893;SDS011;9579;49.488;8.226;2024-01-27T13:13:59;7.78;;;3.67;;
18893;SDS011;9579;49.488;8.226;2024-01-27T13:16:47;6.35;;;3.35;;
18893;SDS011;9579;49.488;8.226;2024-01-27T13:19:39;5.85;;;3.75;;
18893;SDS011;9579;49.488;8.226;2024-01-27T13:22:27;7.93;;;4.00;;
18893;SDS011;9579;49.488;8.226;2024-01-27T13:25:14;7.53;;;3.92;;
18893;SDS011;9579;49.488;8.226;2024-01-27T13:28:01;5.88;;;3.58;;
18893;SDS011;9579;49.488;8.226;2024-01-27T13:30:50;6.68;;;3.17;;
18893;SDS011;9579;49.488;8.226;2024-01-27T13:33:38;9.23;;;3.55;;
18893;SDS011;9579;49.488;8.226;2024-01-27T13:36:25;5.75;;;3.15;;
18893;SDS011;9579;49.488;8.226;2024-01-27T13:39:12;6.10;;;3.22;;
18893;SDS011;9579;49.488;8.226;2024-01-27T13:41:59;5.63;;;3.05;;
18893;SDS011;9579;49.488;8.226;2024-01-27T13:44:46;5.97;;;2.88;;
18893;SDS011;9579;49.488;8.226;2024-01-27T13:47:34;6.45;;;3.00;;
18893;SDS011;9579;49.488;8.226;2024-01-27T13:50:21;7.65;;;3.20;;
18893;SDS011;9579;49.488;8.226;2024-01-27T13:53:10;5.95;;;2.70;;
18893;SDS011;9579;49.488;8.226;2024-01-27T13:55:57;8.15;;;3.40;;
18893;SDS011;9579;49.488;8.226;2024-01-27T13:58:45;8.25;;;3.10;;
18893;SDS011;9579;49.488;8.226;2024-01-27T14:01:32;6.18;;;2.70;;
18893;SDS011;9579;49.488;8.226;2024-01-27T14:04:21;7.43;;;2.83;;
18893;SDS011;9579;49.488;8.226;2024-01-27T14:07:09;4.28;;;2.28;;
18893;SDS011;9579;49.488;8.226;2024-01-27T14:09:56;5.15;;;2.72;;
18893;SDS011;9579;49.488;8.226;2024-01-27T14:12:43;5.38;;;2.50;;
18893;SDS011;9579;49.488;8.226;2024-01-27T14:15:30;5.97;;;2.72;;
18893;SDS011;9579;49.488;8.226;2024-01-27T14:18:17;8.23;;;3.50;;
18893;SDS011;9579;49.488;8.226;2024-01-27T14:21:08;6.18;;;2.78;;
18893;SDS011;9579;49.488;8.226;2024-01-27T14:23:56;6.25;;;2.80;;
18893;SDS011;9579;49.488;8.226;2024-01-27T14:26:47;10.25;;;6.70;;
18893;SDS011;9579;49.488;8.226;2024-01-27T14:29:35;7.85;;;4.28;;
18893;SDS011;9579;49.488;8.226;2024-01-27T14:32:22;5.72;;;3.47;;
18893;SDS011;9579;49.488;8.226;2024-01-27T14:35:09;6.85;;;3.35;;
18893;SDS011;9579;49.488;8.226;2024-01-27T14:37:57;6.50;;;3.05;;
18893;SDS011;9579;49.488;8.226;2024-01-27T14:40:46;5.68;;;3.10;;
18893;SDS011;9579;49.488;8.226;2024-01-27T14:43:33;4.85;;;3.20;;
18893;SDS011;9579;49.488;8.226;2024-01-27T14:46:21;8.23;;;4.10;;
18893;SDS011;9579;49.488;8.226;2024-01-27T14:49:09;6.90;;;3.85;;
18893;SDS011;9579;49.488;8.226;2024-01-27T14:51:56;6.18;;;3.85;;
18893;SDS011;9579;49.488;8.226;2024-01-27T14:54:45;6.43;;;3.80;;
18893;SDS011;9579;49.488;8.226;2024-01-27T14:57:31;7.20;;;3.70;;
18893;SDS011;9579;49.488;8.226;2024-01-27T15:00:19;6.82;;;3.72;;
18893;SDS011;9579;49.488;8.226;2024-01-27T15:03:06;7.28;;;3.90;;
18893;SDS011;9579;49.488;8.226;2024-01-27T15:05:53;6.47;;;3.40;;
18893;SDS011;9579;49.488;8.226;2024-01-27T15:08:40;6.95;;;3.50;;
18893;SDS011;9579;49.488;8.226;2024-01-27T15:11:30;5.85;;;3.47;;
18893;SDS011;9579;49.488;8.226;2024-01-27T15:14:17;7.15;;;3.70;;
18893;SDS011;9579;49.488;8.226;2024-01-27T15:17:04;6.32;;;3.97;;
18893;SDS011;9579;49.488;8.226;2024-01-27T15:19:52;16.42;;;13.10;;
18893;SDS011;9579;49.488;8.226;2024-01-27T15:22:39;11.02;;;7.38;;
18893;SDS011;9579;49.488;8.226;2024-01-27T15:25:27;9.63;;;6.18;;
18893;SDS011;9579;49.488;8.226;2024-01-27T15:28:15;7.22;;;5.53;;
18893;SDS011;9579;49.488;8.226;2024-01-27T15:31:02;10.25;;;6.40;;
18893;SDS011;9579;49.488;8.226;2024-01-27T15:33:50;6.05;;;5.43;;
18893;SDS011;9579;49.488;8.226;2024-01-27T15:36:37;8.07;;;5.40;;
18893;SDS011;9579;49.488;8.226;2024-01-27T15:39:24;10.05;;;5.88;;
18893;SDS011;9579;49.488;8.226;2024-01-27T15:42:11;9.50;;;6.07;;
18893;SDS011;9579;49.488;8.226;2024-01-27T15:45:00;9.85;;;5.38;;
18893;SDS011;9579;49.488;8.226;2024-01-27T15:50:50;7.70;;;4.63;;
18893;SDS011;9579;49.488;8.226;2024-01-27T15:53:37;10.18;;;6.88;;
18893;SDS011;9579;49.488;8.226;2024-01-27T15:56:24;10.37;;;7.23;;
18893;SDS011;9579;49.488;8.226;2024-01-27T15:59:11;9.70;;;6.90;;
18893;SDS011;9579;49.488;8.226;2024-01-27T16:02:00;11.73;;;7.40;;
18893;SDS011;9579;49.488;8.226;2024-01-27T16:04:47;12.73;;;7.30;;
18893;SDS011;9579;49.488;8.226;2024-01-27T16:07:34;11.67;;;7.00;;
18893;SDS011;9579;49.488;8.226;2024-01-27T16:10:21;13.60;;;8.83;;
18893;SDS011;9579;49.488;8.226;2024-01-27T16:13:09;17.10;;;9.47;;
18893;SDS011;9579;49.488;8.226;2024-01-27T16:16:07;14.60;;;9.37;;
18893;SDS011;9579;49.488;8.226;2024-01-27T16:19:07;14.23;;;9.07;;
18893;SDS011;9579;49.488;8.226;2024-01-27T16:22:45;16.57;;;10.93;;
18893;SDS011;9579;49.488;8.226;2024-01-27T16:40:28;11.53;;;7.80;;
18893;SDS011;9579;49.488;8.226;2024-01-27T16:44:07;13.53;;;9.33;;
18893;SDS011;9579;49.488;8.226;2024-01-27T16:47:12;14.97;;;9.50;;
18893;SDS011;9579;49.488;8.226;2024-01-27T16:50:46;12.90;;;9.97;;
18893;SDS011;9579;49.488;8.226;2024-01-27T16:53:35;10.07;;;8.87;;
18893;SDS011;9579;49.488;8.226;2024-01-27T16:56:42;16.33;;;10.40;;
18893;SDS011;9579;49.488;8.226;2024-01-27T16:59:32;14.73;;;11.73;;
18893;SDS011;9579;49.488;8.226;2024-01-27T17:02:30;21.77;;;16.40;;
18893;SDS011;9579;49.488;8.226;2024-01-27T17:05:21;15.93;;;12.50;;
18893;SDS011;9579;49.488;8.226;2024-01-27T17:08:08;23.87;;;21.50;;
18893;SDS011;9579;49.488;8.226;2024-01-27T17:10:57;12.80;;;11.43;;
18893;SDS011;9579;49.488;8.226;2024-01-27T17:13:44;11.50;;;9.70;;
18893;SDS011;9579;49.488;8.226;2024-01-27T17:16:33;11.53;;;9.47;;
18893;SDS011;9579;49.488;8.226;2024-01-27T17:19:21;14.10;;;10.47;;
18893;SDS011;9579;49.488;8.226;2024-01-27T17:22:08;11.47;;;8.87;;
18893;SDS011;9579;49.488;8.226;2024-01-27T17:24:55;13.07;;;10.23;;
18893;SDS011;9579;49.488;8.226;2024-01-27T17:27:48;20.07;;;15.90;;
18893;SDS011;9579;49.488;8.226;2024-01-27T17:30:35;16.17;;;12.13;;
18893;SDS011;9579;49.488;8.226;2024-01-27T17:33:23;20.77;;;17.83;;
18893;SDS011;9579;49.488;8.226;2024-01-27T17:36:11;18.57;;;14.97;;
18893;SDS011;9579;49.488;8.226;2024-01-27T17:38:58;28.07;;;21.00;;
18893;SDS011;9579;49.488;8.226;2024-01-27T17:41:46;29.57;;;22.40;;
18893;SDS011;9579;49.488;8.226;2024-01-27T17:44:34;28.30;;;22.17;;
18893;SDS011;9579;49.488;8.226;2024-01-27T17:47:21;25.63;;;20.13;;
18893;SDS011;9579;49.488;8.226;2024-01-27T17:50:09;21.73;;;16.10;;
18893;SDS011;9579;49.488;8.226;2024-01-27T17:52:57;32.03;;;22.83;;
18893;SDS011;9579;49.488;8.226;2024-01-27T17:55:44;36.13;;;27.47;;
18893;SDS011;9579;49.488;8.226;2024-01-27T17:58:31;30.67;;;24.33;;
18893;SDS011;9579;49.488;8.226;2024-01-27T18:01:19;38.67;;;29.23;;
18893;SDS011;9579;49.488;8.226;2024-01-27T18:04:06;32.67;;;26.30;;
18893;SDS011;9579;49.488;8.226;2024-01-27T18:06:53;33.70;;;28.43;;
18893;SDS011;9579;49.488;8.226;2024-01-27T18:09:40;29.90;;;23.50;;
18893;SDS011;9579;49.488;8.226;2024-01-27T18:12:28;30.40;;;24.30;;
18893;SDS011;9579;49.488;8.226;2024-01-27T18:15:15;25.63;;;21.37;;
18893;SDS011;9579;49.488;8.226;2024-01-27T18:18:03;25.07;;;22.37;;
18893;SDS011;9579;49.488;8.226;2024-01-27T18:20:50;23.87;;;20.13;;
18893;SDS011;9579;49.488;8.226;2024-01-27T18:23:38;22.63;;;18.57;;
18893;SDS011;9579;49.488;8.226;2024-01-27T18:26:25;23.13;;;19.67;;
18893;SDS011;9579;49.488;8.226;2024-01-27T18:29:12;19.97;;;17.30;;
18893;SDS011;9579;49.488;8.226;2024-01-27T18:31:59;34.43;;;31.23;;
18893;SDS011;9579;49.488;8.226;2024-01-27T18:34:47;34.57;;;31.17;;
18893;SDS011;9579;49.488;8.226;2024-01-27T18:37:34;15.73;;;13.77;;
18893;SDS011;9579;49.488;8.226;2024-01-27T18:40:22;28.13;;;25.17;;
18893;SDS011;9579;49.488;8.226;2024-01-27T18:43:09;23.93;;;21.33;;
18893;SDS011;9579;49.488;8.226;2024-01-27T18:45:56;17.77;;;15.50;;
18893;SDS011;9579;49.488;8.226;2024-01-27T18:48:45;20.03;;;17.47;;
18893;SDS011;9579;49.488;8.226;2024-01-27T18:51:35;20.97;;;16.50;;
18893;SDS011;9579;49.488;8.226;2024-01-27T18:54:22;17.70;;;13.03;;